createdAt,value
2023-09-17T00:01:37.855Z,100447.66
2023-09-17T00:04:07.579Z,100447.17
2023-09-17T00:06:35.343Z,100445.94
2023-09-17T00:09:04.750Z,100444.52
2023-09-17T00:11:32.332Z,100442.17
2023-09-17T00:13:59.827Z,100444.85
2023-09-17T00:16:32.876Z,100440.23
2023-09-17T00:19:01.309Z,100445.88
2023-09-17T00:21:29.020Z,100445.79
2023-09-17T00:23:56.547Z,100445.41
2023-09-17T00:26:24.026Z,100447.64
2023-09-17T00:28:52.338Z,100442.80
2023-09-17T00:31:19.948Z,100445.86
2023-09-17T00:33:47.726Z,100443.95
2023-09-17T00:36:15.522Z,100445.84
2023-09-17T00:38:43.078Z,100447.09
2023-09-17T00:41:10.606Z,100446.36
2023-09-17T00:43:38.181Z,100445.35
2023-09-17T00:46:06.029Z,100441.23
2023-09-17T00:48:33.988Z,100444.29
2023-09-17T00:51:01.519Z,100444.92
2023-09-17T00:53:29.371Z,100443.23
2023-09-17T00:55:56.959Z,100448.09
2023-09-17T00:58:24.522Z,100446.32
2023-09-17T01:00:52.239Z,100446.45
2023-09-17T01:03:19.960Z,100446.46
2023-09-17T01:05:47.591Z,100447.38
2023-09-17T01:08:15.391Z,100446.59
2023-09-17T01:10:43.127Z,100445.27
2023-09-17T01:13:11.304Z,100441.67
2023-09-17T01:15:39.303Z,100439.11
2023-09-17T01:18:07.663Z,100436.00
2023-09-17T01:20:51.862Z,100437.95
2023-09-17T01:23:52.870Z,100435.52
2023-09-17T01:26:27.614Z,100433.23
2023-09-17T01:28:55.716Z,100435.42
2023-09-17T01:31:24.723Z,100436.07
2023-09-17T01:33:53.047Z,100433.18
2023-09-17T01:36:24.830Z,100434.78
2023-09-17T01:38:54.093Z,100434.75
2023-09-17T01:41:23.122Z,100432.88
2023-09-17T01:43:50.994Z,100431.64
2023-09-17T01:46:19.577Z,100430.16
2023-09-17T01:48:48.650Z,100427.78
2023-09-17T01:51:17.194Z,100417.50
2023-09-17T01:53:45.596Z,100424.41
2023-09-17T01:56:13.406Z,100424.02
2023-09-17T01:58:40.968Z,100422.02
2023-09-17T02:01:08.595Z,100421.27
2023-09-17T02:03:36.414Z,100425.10
2023-09-17T02:06:05.619Z,100425.80
2023-09-17T02:08:33.190Z,100427.58
2023-09-17T02:11:00.686Z,100425.16
2023-09-17T02:13:28.232Z,100425.51
2023-09-17T02:15:55.920Z,100425.16
2023-09-17T02:18:23.841Z,100419.80
2023-09-17T02:20:51.450Z,100419.48
2023-09-17T02:23:19.090Z,100416.82
2023-09-17T02:25:48.202Z,100416.79
2023-09-17T02:28:15.936Z,100415.91
2023-09-17T02:30:43.643Z,100414.16
2023-09-17T02:33:11.963Z,100419.09
2023-09-17T02:35:40.046Z,100421.55
2023-09-17T02:38:07.555Z,100414.98
2023-09-17T02:40:35.120Z,100414.50
2023-09-17T02:43:03.092Z,100412.60
2023-09-17T02:45:30.670Z,100408.84
2023-09-17T02:47:58.507Z,100405.35
2023-09-17T02:50:26.593Z,100407.27
2023-09-17T02:52:54.472Z,100407.91
2023-09-17T02:55:23.388Z,100407.58
2023-09-17T02:57:51.211Z,100406.05
2023-09-17T03:00:18.742Z,100403.69
2023-09-17T03:02:51.916Z,100402.52
2023-09-17T03:05:19.526Z,100408.15
2023-09-17T03:07:48.026Z,100409.83
2023-09-17T03:10:20.143Z,100409.21
2023-09-17T03:12:47.986Z,100409.85
2023-09-17T03:15:15.515Z,100411.12
2023-09-17T03:17:44.363Z,100405.33
2023-09-17T03:20:15.601Z,100411.73
2023-09-17T03:25:33.065Z,100412.21
2023-09-17T03:28:01.048Z,100408.83
2023-09-17T03:30:29.201Z,100408.20
2023-09-17T03:33:04.813Z,100410.90
2023-09-17T03:35:38.749Z,100412.55
2023-09-17T03:38:06.467Z,100412.74
2023-09-17T03:40:35.066Z,100409.77
2023-09-17T03:43:03.461Z,100410.16
2023-09-17T03:45:32.381Z,100413.21
2023-09-17T03:48:00.312Z,100410.05
2023-09-17T03:50:31.911Z,100410.94
2023-09-17T03:53:00.638Z,100408.41
2023-09-17T03:55:28.141Z,100410.23
2023-09-17T03:57:57.896Z,100414.58
2023-09-17T04:00:26.631Z,100411.18
2023-09-17T04:02:54.355Z,100412.35
2023-09-17T04:05:22.855Z,100419.77
2023-09-17T04:07:50.488Z,100418.30
2023-09-17T04:10:18.637Z,100419.91
2023-09-17T04:12:46.956Z,100423.27
2023-09-17T04:15:20.394Z,100421.77
2023-09-17T04:17:54.604Z,100425.56
2023-09-17T04:20:22.555Z,100426.70
2023-09-17T04:22:51.811Z,100427.20
2023-09-17T04:25:21.435Z,100427.41
2023-09-17T04:27:50.448Z,100424.55
2023-09-17T04:30:20.015Z,100424.26
2023-09-17T04:32:48.957Z,100423.84
2023-09-17T04:35:17.350Z,100424.39
2023-09-17T04:37:46.181Z,100426.74
2023-09-17T04:40:13.826Z,100427.63
2023-09-17T04:42:49.946Z,100430.45
2023-09-17T04:45:32.999Z,100425.30
2023-09-17T04:48:00.706Z,100420.29
2023-09-17T04:50:29.212Z,100423.23
2023-09-17T04:52:56.951Z,100420.83
2023-09-17T04:55:26.571Z,100417.90
2023-09-17T04:57:54.521Z,100417.57
2023-09-17T05:00:22.083Z,100421.21
2023-09-17T05:02:50.539Z,100425.83
2023-09-17T05:05:24.107Z,100423.04
2023-09-17T05:07:54.164Z,100422.27
2023-09-17T05:10:22.453Z,100420.11
2023-09-17T05:12:50.198Z,100417.19
2023-09-17T05:15:17.992Z,100419.82
2023-09-17T05:17:45.590Z,100420.14
2023-09-17T05:20:13.320Z,100418.46
2023-09-17T05:22:40.891Z,100418.52
2023-09-17T05:25:09.634Z,100415.36
2023-09-17T05:27:38.438Z,100421.66
2023-09-17T05:30:07.256Z,100418.35
2023-09-17T05:32:34.893Z,100420.77
2023-09-17T05:35:04.719Z,100415.55
2023-09-17T05:37:32.652Z,100418.09
2023-09-17T05:40:02.148Z,100415.36
2023-09-17T05:42:30.660Z,100415.79
2023-09-17T05:44:58.899Z,100412.02
2023-09-17T05:47:26.628Z,100417.08
2023-09-17T05:49:57.160Z,100417.61
2023-09-17T05:52:25.782Z,100414.58
2023-09-17T05:54:53.510Z,100414.71
2023-09-17T05:57:21.096Z,100414.89
2023-09-17T05:59:48.924Z,100418.77
2023-09-17T06:02:16.504Z,100421.11
2023-09-17T06:04:48.866Z,100421.73
2023-09-17T06:07:16.564Z,100425.51
2023-09-17T06:09:44.060Z,100428.19
2023-09-17T06:12:12.049Z,100425.98
2023-09-17T06:14:40.433Z,100427.66
2023-09-17T06:17:08.334Z,100428.39
2023-09-17T06:19:38.723Z,100432.11
2023-09-17T06:22:06.282Z,100434.55
2023-09-17T06:24:34.295Z,100427.10
2023-09-17T06:27:01.850Z,100431.54
2023-09-17T06:29:29.328Z,100434.60
2023-09-17T06:31:57.482Z,100433.35
2023-09-17T06:34:25.181Z,100432.33
2023-09-17T06:36:52.808Z,100438.18
2023-09-17T06:39:20.495Z,100436.84
2023-09-17T06:41:48.558Z,100435.32
2023-09-17T06:44:17.436Z,100438.45
2023-09-17T06:46:45.181Z,100437.34
2023-09-17T06:49:13.032Z,100442.96
2023-09-17T06:51:40.546Z,100437.73
2023-09-17T06:54:08.101Z,100437.69
2023-09-17T06:56:35.614Z,100434.77
2023-09-17T06:59:03.791Z,100435.83
2023-09-17T07:01:31.592Z,100423.79
2023-09-17T07:03:59.350Z,100435.97
2023-09-17T07:06:26.987Z,100432.07
2023-09-17T07:08:57.028Z,100435.39
2023-09-17T07:11:24.716Z,100426.05
2023-09-17T07:13:52.526Z,100439.44
2023-09-17T07:16:20.542Z,100438.34
2023-09-17T07:18:48.252Z,100440.41
2023-09-17T07:21:15.808Z,100433.73
2023-09-17T07:23:44.191Z,100432.08
2023-09-17T07:26:13.905Z,100437.11
2023-09-17T07:28:41.640Z,100435.63
2023-09-17T07:31:11.559Z,100431.14
2023-09-17T07:33:40.620Z,100430.37
2023-09-17T07:36:08.159Z,100426.77
2023-09-17T07:38:35.720Z,100423.55
2023-09-17T07:41:03.715Z,100419.95
2023-09-17T07:43:31.261Z,100417.83
2023-09-17T07:45:59.020Z,100419.88
2023-09-17T07:48:27.001Z,100419.63
2023-09-17T07:51:01.595Z,100422.61
2023-09-17T07:53:29.080Z,100423.36
2023-09-17T07:55:57.829Z,100422.48
2023-09-17T07:58:25.776Z,100421.05
2023-09-17T08:00:54.868Z,100421.02
2023-09-17T08:03:22.595Z,100419.96
2023-09-17T08:05:50.854Z,100416.90
2023-09-17T08:08:18.522Z,100414.98
2023-09-17T08:10:46.066Z,100413.70
2023-09-17T08:13:13.884Z,100414.30
2023-09-17T08:15:41.462Z,100411.80
2023-09-17T08:18:09.115Z,100412.23
2023-09-17T08:20:36.795Z,100413.04
2023-09-17T08:23:05.643Z,100409.45
2023-09-17T08:25:34.818Z,100409.39
2023-09-17T08:28:08.174Z,100411.13
2023-09-17T08:30:37.094Z,100411.32
2023-09-17T08:33:06.226Z,100408.08
2023-09-17T08:35:33.726Z,100404.67
2023-09-17T08:38:01.853Z,100403.00
2023-09-17T08:40:33.205Z,100401.95
2023-09-17T08:43:01.049Z,100402.63
2023-09-17T08:45:29.960Z,100401.66
2023-09-17T08:47:57.546Z,100398.45
2023-09-17T08:50:26.205Z,100400.76
2023-09-17T08:52:58.262Z,100399.05
2023-09-17T08:55:26.127Z,100398.05
2023-09-17T08:58:16.729Z,100398.55
2023-09-17T09:00:48.217Z,100397.00
2023-09-17T09:03:17.583Z,100398.77
2023-09-17T09:05:47.253Z,100399.38
2023-09-17T09:08:14.879Z,100393.23
2023-09-17T09:10:42.427Z,100391.59
2023-09-17T09:13:10.579Z,100386.25
2023-09-17T09:15:38.043Z,100384.92
2023-09-17T09:18:06.401Z,100386.39
2023-09-17T09:20:33.957Z,100387.05
2023-09-17T09:23:01.846Z,100387.33
2023-09-17T09:25:30.101Z,100387.81
2023-09-17T09:28:01.433Z,100387.30
2023-09-17T09:30:29.534Z,100380.89
2023-09-17T09:32:57.589Z,100382.27
2023-09-17T09:35:25.507Z,100385.77
2023-09-17T09:37:54.813Z,100378.91
2023-09-17T09:40:23.054Z,100378.19
2023-09-17T09:42:50.828Z,100379.68
2023-09-17T09:45:19.142Z,100378.58
2023-09-17T09:47:50.845Z,100377.07
2023-09-17T09:50:25.657Z,100382.23
2023-09-17T09:52:54.741Z,100373.88
2023-09-17T09:55:26.008Z,100380.55
2023-09-17T09:57:53.732Z,100377.95
2023-09-17T10:00:30.778Z,100375.48
2023-09-17T10:02:58.490Z,100378.27
2023-09-17T10:05:38.444Z,100376.55
2023-09-17T10:08:07.197Z,100382.84
2023-09-17T10:10:36.161Z,100379.33
2023-09-17T10:13:07.096Z,100385.20
2023-09-17T10:15:35.886Z,100378.41
2023-09-17T10:18:05.434Z,100378.82
2023-09-17T10:20:33.138Z,100381.68
2023-09-17T10:23:00.893Z,100374.75
2023-09-17T10:25:29.888Z,100373.30
2023-09-17T10:27:57.575Z,100368.06
2023-09-17T10:30:25.323Z,100365.88
2023-09-17T10:32:53.437Z,100366.05
2023-09-17T10:35:21.250Z,100364.74
2023-09-17T10:37:49.243Z,100359.34
2023-09-17T10:40:17.125Z,100359.27
2023-09-17T10:42:44.783Z,100354.85
2023-09-17T10:45:12.282Z,100351.30
2023-09-17T10:47:40.058Z,100351.51
2023-09-17T10:50:08.440Z,100342.44
2023-09-17T10:52:37.416Z,100337.23
2023-09-17T10:55:09.089Z,100336.39
2023-09-17T10:57:47.176Z,100332.16
2023-09-17T11:00:18.555Z,100335.23
2023-09-17T11:02:51.884Z,100330.02
2023-09-17T11:05:20.762Z,100326.42
2023-09-17T11:07:48.551Z,100328.18
2023-09-17T11:10:29.427Z,100326.66
2023-09-17T11:12:59.272Z,100322.02
2023-09-17T11:15:26.910Z,100320.11
2023-09-17T11:18:02.462Z,100324.70
2023-09-17T11:20:30.378Z,100324.80
2023-09-17T11:22:58.406Z,100317.48
2023-09-17T11:25:36.812Z,100317.98
2023-09-17T11:28:12.404Z,100310.43
2023-09-17T11:30:56.444Z,100301.95
2023-09-17T11:33:25.030Z,100302.42
2023-09-17T11:35:56.240Z,100298.67
2023-09-17T11:38:28.002Z,100293.72
2023-09-17T11:41:31.389Z,100289.98
2023-09-17T11:44:05.140Z,100286.19
2023-09-17T11:46:34.652Z,100291.48
2023-09-17T11:49:02.968Z,100287.50
2023-09-17T11:51:31.551Z,100287.03
2023-09-17T11:54:03.850Z,100283.27
2023-09-17T11:56:32.663Z,100273.24
2023-09-17T11:59:01.696Z,100273.63
2023-09-17T12:01:31.199Z,100275.67
2023-09-17T12:04:01.629Z,100273.17
2023-09-17T12:06:29.361Z,100268.17
2023-09-17T12:09:12.457Z,100256.61
2023-09-17T12:11:59.108Z,100268.05
2023-09-17T12:14:26.799Z,100265.91
2023-09-17T12:16:54.586Z,100267.23
2023-09-17T12:19:22.404Z,100257.00
2023-09-17T12:21:53.007Z,100263.23
2023-09-17T12:24:36.181Z,100254.48
2023-09-17T12:27:26.683Z,100247.52
2023-09-17T12:29:54.783Z,100247.50
2023-09-17T12:32:26.340Z,100246.36
2023-09-17T12:34:55.197Z,100240.52
2023-09-17T12:37:23.332Z,100238.52
2023-09-17T12:39:54.220Z,100236.45
2023-09-17T12:42:22.592Z,100234.92
2023-09-17T12:44:50.798Z,100230.82
2023-09-17T12:47:19.961Z,100229.89
2023-09-17T12:49:47.553Z,100230.29
2023-09-17T12:52:16.792Z,100231.71
2023-09-17T12:54:44.468Z,100224.11
2023-09-17T12:57:12.167Z,100226.29
2023-09-17T12:59:39.901Z,100219.63
2023-09-17T13:02:08.339Z,100216.77
2023-09-17T13:04:40.948Z,100212.22
2023-09-17T13:07:16.387Z,100213.17
2023-09-17T13:09:46.652Z,100207.26
2023-09-17T13:12:21.087Z,100204.25
2023-09-17T13:14:53.478Z,100201.81
2023-09-17T13:17:21.995Z,100195.20
2023-09-17T13:19:50.267Z,100191.92
2023-09-17T13:22:18.442Z,100196.02
2023-09-17T13:24:46.534Z,100191.31
2023-09-17T13:27:18.783Z,100197.44
2023-09-17T13:29:53.826Z,100197.88
2023-09-17T13:32:21.703Z,100196.27
2023-09-17T13:34:51.438Z,100193.40
2023-09-17T13:37:19.056Z,100191.45
2023-09-17T13:39:50.284Z,100187.07
2023-09-17T13:42:18.065Z,100188.27
2023-09-17T13:44:45.992Z,100180.85
2023-09-17T13:47:13.711Z,100177.96
2023-09-17T13:49:42.140Z,100174.02
2023-09-17T13:52:10.873Z,100172.34
2023-09-17T13:54:40.360Z,100171.48
2023-09-17T13:57:08.349Z,100171.17
2023-09-17T13:59:36.227Z,100168.47
2023-09-17T14:02:05.209Z,100164.38
2023-09-17T14:04:34.491Z,100159.91
2023-09-17T14:07:02.787Z,100157.05
2023-09-17T14:09:30.471Z,100156.52
2023-09-17T14:11:58.110Z,100154.59
2023-09-17T14:14:25.877Z,100154.48
2023-09-17T14:16:53.558Z,100155.91
2023-09-17T14:19:21.206Z,100154.20
2023-09-17T14:21:49.091Z,100149.73
2023-09-17T14:24:17.292Z,100153.29
2023-09-17T14:26:45.192Z,100147.20
2023-09-17T14:29:12.955Z,100148.05
2023-09-17T14:31:43.755Z,100144.51
2023-09-17T14:34:12.085Z,100143.17
2023-09-17T14:36:39.944Z,100139.05
2023-09-17T14:39:09.264Z,100136.50
2023-09-17T14:41:38.501Z,100140.55
2023-09-17T14:44:06.710Z,100141.96
2023-09-17T14:46:39.074Z,100138.60
2023-09-17T14:49:07.390Z,100138.74
2023-09-17T14:51:34.957Z,100140.09
2023-09-17T14:54:02.944Z,100141.55
2023-09-17T14:56:31.988Z,100141.90
2023-09-17T14:58:59.562Z,100136.70
2023-09-17T15:04:01.110Z,100140.87
2023-09-17T15:06:30.703Z,100141.87
2023-09-17T15:08:58.733Z,100139.11
2023-09-17T15:11:26.623Z,100134.39
2023-09-17T15:13:54.241Z,100139.25
2023-09-17T15:16:21.947Z,100135.14
2023-09-17T15:18:49.846Z,100134.61
2023-09-17T15:21:17.806Z,100139.71
2023-09-17T15:23:45.320Z,100138.22
2023-09-17T15:26:12.830Z,100142.89
2023-09-17T15:28:40.694Z,100143.65
2023-09-17T15:31:08.293Z,100144.20
2023-09-17T15:33:35.926Z,100145.65
2023-09-17T15:36:04.360Z,100142.02
2023-09-17T15:38:31.967Z,100141.11
2023-09-17T15:43:20.027Z,100137.11
2023-09-17T15:45:47.564Z,100142.88
2023-09-17T15:48:15.295Z,100141.65
2023-09-17T15:50:43.116Z,100142.52
2023-09-17T15:53:10.792Z,100144.91
2023-09-17T15:55:38.549Z,100146.62
2023-09-17T15:58:06.153Z,100149.46
2023-09-17T16:00:33.648Z,100151.45
2023-09-17T16:03:01.430Z,100135.60
2023-09-17T16:05:29.606Z,100153.92
2023-09-17T16:07:57.321Z,100150.39
2023-09-17T16:10:25.730Z,100153.27
2023-09-17T16:12:55.470Z,100155.73
2023-09-17T16:15:24.173Z,100155.17
2023-09-17T16:17:51.924Z,100155.70
2023-09-17T16:20:19.716Z,100154.14
2023-09-17T16:22:48.831Z,100152.73
2023-09-17T16:25:16.899Z,100155.80
2023-09-17T16:27:44.687Z,100154.29
2023-09-17T16:30:14.593Z,100153.02
2023-09-17T16:32:43.617Z,100158.09
2023-09-17T16:35:11.602Z,100157.85
2023-09-17T16:37:40.357Z,100159.17
2023-09-17T16:40:08.574Z,100162.73
2023-09-17T16:42:36.268Z,100166.47
2023-09-17T16:45:05.945Z,100166.88
2023-09-17T16:47:34.475Z,100169.67
2023-09-17T16:50:02.655Z,100174.52
2023-09-17T16:52:30.325Z,100173.17
2023-09-17T16:54:58.606Z,100177.14
2023-09-17T16:57:26.164Z,100179.05
2023-09-17T16:59:53.710Z,100175.95
2023-09-17T17:02:21.293Z,100178.69
2023-09-17T17:04:49.308Z,100183.65
2023-09-17T17:07:17.233Z,100182.11
2023-09-17T17:09:44.689Z,100182.05
2023-09-17T17:12:12.245Z,100183.28
2023-09-17T17:14:40.971Z,100182.81
2023-09-17T17:17:08.733Z,100178.17
2023-09-17T17:19:36.377Z,100181.05
2023-09-17T17:22:04.560Z,100175.05
2023-09-17T17:24:32.073Z,100173.87
2023-09-17T17:26:59.582Z,100172.65
2023-09-17T17:29:27.257Z,100176.77
2023-09-17T17:31:54.898Z,100176.30
2023-09-17T17:34:24.018Z,100180.71
2023-09-17T17:36:52.859Z,100179.83
2023-09-17T17:39:20.512Z,100177.83
2023-09-17T17:41:48.246Z,100181.52
2023-09-17T17:44:15.849Z,100183.62
2023-09-17T17:46:43.537Z,100184.70
2023-09-17T17:49:11.295Z,100184.65
2023-09-17T17:51:39.865Z,100189.58
2023-09-17T17:54:07.803Z,100188.52
2023-09-17T17:56:35.403Z,100187.77
2023-09-17T17:59:03.507Z,100179.02
2023-09-17T18:01:31.443Z,100194.36
2023-09-17T18:03:59.182Z,100193.35
2023-09-17T18:06:26.937Z,100194.55
2023-09-17T18:08:54.519Z,100195.67
2023-09-17T18:11:22.169Z,100195.45
2023-09-17T18:13:50.171Z,100197.35
2023-09-17T18:16:18.267Z,100193.13
2023-09-17T18:18:45.964Z,100197.22
2023-09-17T18:21:13.606Z,100192.91
2023-09-17T18:23:41.293Z,100194.73
2023-09-17T18:26:08.893Z,100194.52
2023-09-17T18:28:36.460Z,100197.26
2023-09-17T18:31:04.377Z,100196.02
2023-09-17T18:33:34.232Z,100202.52
2023-09-17T18:36:03.203Z,100201.89
2023-09-17T18:38:30.798Z,100199.23
2023-09-17T18:40:58.458Z,100195.13
2023-09-17T18:43:28.174Z,100194.26
2023-09-17T18:45:55.775Z,100193.86
2023-09-17T18:48:23.316Z,100191.11
2023-09-17T18:50:50.824Z,100190.95
2023-09-17T18:53:18.518Z,100194.63
2023-09-17T18:55:46.257Z,100191.95
2023-09-17T18:58:13.988Z,100190.61
2023-09-17T19:00:42.841Z,100191.39
2023-09-17T19:03:10.975Z,100188.64
2023-09-17T19:05:39.169Z,100190.35
2023-09-17T19:08:06.949Z,100196.52
2023-09-17T19:10:35.097Z,100196.51
2023-09-17T19:13:02.628Z,100196.20
2023-09-17T19:15:31.619Z,100195.46
2023-09-17T19:17:59.341Z,100192.94
2023-09-17T19:20:27.757Z,100188.61
2023-09-17T19:22:55.474Z,100186.69
2023-09-17T19:25:23.173Z,100185.96
2023-09-17T19:27:50.703Z,100182.34
2023-09-17T19:30:18.221Z,100184.89
2023-09-17T19:32:45.887Z,100181.98
2023-09-17T19:35:14.205Z,100179.14
2023-09-17T19:37:41.873Z,100179.59
2023-09-17T19:40:10.573Z,100176.59
2023-09-17T19:42:38.085Z,100173.91
2023-09-17T19:45:06.445Z,100175.69
2023-09-17T19:47:34.054Z,100175.27
2023-09-17T19:50:01.912Z,100175.95
2023-09-17T19:52:29.521Z,100177.10
2023-09-17T19:54:57.075Z,100177.85
2023-09-17T19:57:25.552Z,100178.23
2023-09-17T19:59:53.364Z,100178.11
2023-09-17T20:02:21.134Z,100175.91
2023-09-17T20:04:48.893Z,100176.82
2023-09-17T20:07:17.672Z,100179.61
2023-09-17T20:09:45.208Z,100182.94
2023-09-17T20:12:12.768Z,100180.17
2023-09-17T20:14:40.389Z,100178.17
2023-09-17T20:17:08.021Z,100176.32
2023-09-17T20:19:37.382Z,100174.57
2023-09-17T20:22:05.273Z,100172.34
2023-09-17T20:24:32.893Z,100174.26
2023-09-17T20:27:00.867Z,100171.95
2023-09-17T20:29:28.444Z,100172.85
2023-09-17T20:31:56.169Z,100166.64
2023-09-17T20:34:24.146Z,100169.27
2023-09-17T20:36:52.350Z,100166.98
2023-09-17T20:39:19.846Z,100164.35
2023-09-17T20:41:47.364Z,100167.14
2023-09-17T20:44:15.016Z,100170.48
2023-09-17T20:46:42.629Z,100169.35
2023-09-17T20:49:10.669Z,100164.32
2023-09-17T20:51:38.267Z,100162.34
2023-09-17T20:54:06.224Z,100163.55
2023-09-17T20:56:33.809Z,100166.67
2023-09-17T20:59:01.466Z,100167.43
2023-09-17T21:01:29.096Z,100166.17
2023-09-17T21:03:56.885Z,100161.45
2023-09-17T21:06:24.554Z,100163.54
2023-09-17T21:08:52.198Z,100158.36
2023-09-17T21:11:21.421Z,100158.88
2023-09-17T21:13:49.237Z,100164.56
2023-09-17T21:16:17.447Z,100163.98
2023-09-17T21:18:45.052Z,100164.11
2023-09-17T21:21:12.963Z,100166.42
2023-09-17T21:23:40.724Z,100166.14
2023-09-17T21:26:12.250Z,100168.16
2023-09-17T21:28:40.106Z,100165.23
2023-09-17T21:31:08.632Z,100167.05
2023-09-17T21:33:36.354Z,100163.27
2023-09-17T21:36:04.520Z,100164.16
2023-09-17T21:38:32.398Z,100163.61
2023-09-17T21:41:00.248Z,100165.58
2023-09-17T21:43:28.177Z,100166.44
2023-09-17T21:45:55.652Z,100164.80
2023-09-17T21:48:23.295Z,100160.34
2023-09-17T21:50:51.645Z,100157.27
2023-09-17T21:53:19.995Z,100157.23
2023-09-17T21:55:47.639Z,100156.73
2023-09-17T21:58:15.376Z,100159.14
2023-09-17T22:00:43.166Z,100160.34
2023-09-17T22:03:10.888Z,100159.66
2023-09-17T22:05:43.062Z,100159.15
2023-09-17T22:08:11.450Z,100158.72
2023-09-17T22:10:39.404Z,100162.25
2023-09-17T22:13:07.549Z,100158.67
2023-09-17T22:15:36.619Z,100161.23
2023-09-17T22:18:04.663Z,100163.31
2023-09-17T22:20:32.470Z,100161.77
2023-09-17T22:23:00.653Z,100163.15
2023-09-17T22:25:28.730Z,100159.52
2023-09-17T22:27:56.409Z,100159.92
2023-09-17T22:30:25.930Z,100158.89
2023-09-17T22:32:53.703Z,100158.69
2023-09-17T22:35:21.739Z,100157.13
2023-09-17T22:37:49.593Z,100155.89
2023-09-17T22:40:17.567Z,100154.02
2023-09-17T22:42:45.122Z,100157.27
2023-09-17T22:45:12.900Z,100161.35
2023-09-17T22:47:40.494Z,100164.84
2023-09-17T22:50:08.915Z,100161.67
2023-09-17T22:52:36.647Z,100166.04
2023-09-17T22:55:04.763Z,100168.18
2023-09-17T22:57:32.265Z,100166.73
2023-09-17T22:59:59.819Z,100167.39
2023-09-17T23:02:27.576Z,100167.50
2023-09-17T23:04:56.001Z,100156.93
2023-09-17T23:07:23.610Z,100169.39
2023-09-17T23:09:51.528Z,100171.41
2023-09-17T23:12:19.088Z,100178.32
2023-09-17T23:14:46.840Z,100176.18
2023-09-17T23:17:14.423Z,100183.45
2023-09-17T23:19:43.875Z,100180.98
2023-09-17T23:22:11.362Z,100187.31
2023-09-17T23:24:39.489Z,100185.67
2023-09-17T23:27:08.332Z,100188.16
2023-09-17T23:29:37.113Z,100186.83
2023-09-17T23:32:05.066Z,100187.14
2023-09-17T23:34:34.759Z,100183.78
2023-09-17T23:37:02.294Z,100182.88
2023-09-17T23:39:29.779Z,100179.05
2023-09-17T23:41:57.391Z,100182.92
2023-09-17T23:44:27.567Z,100180.26
2023-09-17T23:46:55.298Z,100183.69
2023-09-17T23:49:23.657Z,100183.45
2023-09-17T23:51:51.178Z,100183.04
2023-09-17T23:54:20.981Z,100181.79
2023-09-17T23:56:48.844Z,100182.72
2023-09-17T23:59:16.417Z,100186.63
